createdAt,value
2022-11-16T00:02:18.143Z,7.47
2022-11-16T00:05:25.525Z,7.56
2022-11-16T00:08:33.977Z,7.50
2022-11-16T00:11:38.359Z,7.51
2022-11-16T00:14:40.919Z,7.59
2022-11-16T00:17:43.246Z,7.53
2022-11-16T00:20:45.707Z,7.51
2022-11-16T00:23:48.139Z,7.42
2022-11-16T00:26:53.031Z,7.40
2022-11-16T00:29:55.827Z,7.40
2022-11-16T00:33:02.742Z,7.45
2022-11-16T00:36:07.119Z,7.47
2022-11-16T00:39:13.598Z,7.43
2022-11-16T00:42:15.954Z,7.45
2022-11-16T00:45:18.620Z,7.49
2022-11-16T00:48:22.005Z,7.45
2022-11-16T00:51:24.772Z,7.45
2022-11-16T00:54:27.435Z,7.34
2022-11-16T00:57:29.952Z,7.29
2022-11-16T01:00:32.913Z,7.26
2022-11-16T01:03:36.667Z,7.30
2022-11-16T01:06:39.228Z,7.33
2022-11-16T01:09:41.663Z,7.21
2022-11-16T01:12:46.782Z,7.21
2022-11-16T01:15:50.041Z,7.31
2022-11-16T01:18:54.600Z,7.28
2022-11-16T01:21:57.083Z,7.24
2022-11-16T01:24:59.457Z,7.08
2022-11-16T01:28:02.001Z,7.02
2022-11-16T01:31:16.533Z,6.93
2022-11-16T01:34:19.082Z,7.08
2022-11-16T01:37:21.647Z,7.05
2022-11-16T01:40:27.149Z,6.88
2022-11-16T01:43:29.705Z,6.88
2022-11-16T01:46:37.693Z,6.92
2022-11-16T01:49:48.939Z,7.00
2022-11-16T01:52:59.855Z,7.10
2022-11-16T01:56:08.595Z,7.17
2022-11-16T01:59:30.476Z,7.27
2022-11-16T02:02:33.894Z,7.27
2022-11-16T02:06:08.180Z,7.06
2022-11-16T02:09:54.098Z,7.15
2022-11-16T02:13:30.328Z,6.89
2022-11-16T02:16:51.789Z,7.03
2022-11-16T02:20:17.201Z,6.89
2022-11-16T02:23:57.098Z,6.95
2022-11-16T02:27:34.305Z,6.90
2022-11-16T02:30:42.514Z,6.96
2022-11-16T02:33:48.939Z,6.96
2022-11-16T02:36:55.237Z,6.96
2022-11-16T02:40:01.450Z,6.98
2022-11-16T02:43:10.898Z,7.07
2022-11-16T02:46:21.649Z,7.12
2022-11-16T02:49:27.787Z,7.19
2022-11-16T02:52:30.463Z,7.24
2022-11-16T02:55:34.660Z,7.18
2022-11-16T02:58:37.231Z,7.16
2022-11-16T03:01:47.877Z,7.20
2022-11-16T03:04:59.834Z,7.25
2022-11-16T03:08:18.002Z,7.37
2022-11-16T03:11:39.560Z,7.34
2022-11-16T03:14:54.801Z,7.29
2022-11-16T03:18:00.229Z,7.32
2022-11-16T03:21:14.200Z,7.34
2022-11-16T03:24:19.394Z,7.37
2022-11-16T03:27:25.911Z,7.44
2022-11-16T03:30:33.299Z,7.39
2022-11-16T03:33:41.090Z,7.33
2022-11-16T03:36:46.740Z,7.36
2022-11-16T03:39:52.521Z,7.45
2022-11-16T03:42:56.293Z,7.34
2022-11-16T03:45:59.954Z,7.32
2022-11-16T03:49:02.615Z,7.21
2022-11-16T03:52:11.000Z,7.15
2022-11-16T03:55:13.400Z,7.18
2022-11-16T03:58:18.747Z,7.10
2022-11-16T04:01:21.940Z,7.09
2022-11-16T04:04:44.053Z,7.10
2022-11-16T04:08:06.773Z,7.13
2022-11-16T04:11:33.799Z,7.20
2022-11-16T04:14:54.853Z,7.25
2022-11-16T04:18:17.706Z,7.27
2022-11-16T04:21:54.276Z,7.33
2022-11-16T04:25:07.760Z,7.25
2022-11-16T04:28:13.770Z,7.25
2022-11-16T04:31:39.102Z,7.20
2022-11-16T04:35:03.760Z,7.20
2022-11-16T04:38:06.286Z,7.28
2022-11-16T04:41:31.207Z,7.29
2022-11-16T04:44:55.748Z,7.14
2022-11-16T04:48:01.532Z,7.16
2022-11-16T04:51:06.955Z,7.08
2022-11-16T04:54:10.421Z,7.15
2022-11-16T04:57:13.518Z,7.20
2022-11-16T05:00:16.750Z,7.32
2022-11-16T05:03:19.772Z,7.37
2022-11-16T05:06:22.148Z,7.48
2022-11-16T05:09:25.305Z,7.46
2022-11-16T05:12:28.425Z,7.44
2022-11-16T05:15:34.221Z,7.49
2022-11-16T05:18:36.887Z,7.53
2022-11-16T05:21:40.496Z,7.51
2022-11-16T05:24:44.306Z,7.55
2022-11-16T05:27:47.085Z,7.55
2022-11-16T05:30:49.453Z,7.56
2022-11-16T05:33:56.406Z,7.56
2022-11-16T05:36:59.910Z,7.53
2022-11-16T05:40:02.670Z,7.64
2022-11-16T05:43:15.574Z,7.62
2022-11-16T05:46:27.016Z,7.57
2022-11-16T05:49:32.328Z,7.62
2022-11-16T05:52:34.998Z,7.61
2022-11-16T05:55:41.618Z,7.58
2022-11-16T05:58:45.718Z,7.66
2022-11-16T06:01:48.610Z,7.62
2022-11-16T06:04:52.112Z,7.47
2022-11-16T06:07:56.625Z,7.41
2022-11-16T06:11:04.972Z,7.47
2022-11-16T06:14:08.655Z,7.38
2022-11-16T06:17:14.595Z,7.42
2022-11-16T06:20:18.212Z,7.44
2022-11-16T06:23:21.618Z,7.44
2022-11-16T06:26:24.752Z,7.44
2022-11-16T06:29:27.461Z,7.53
2022-11-16T06:32:30.155Z,7.70
2022-11-16T06:35:33.365Z,7.72
2022-11-16T06:38:36.737Z,7.60
2022-11-16T06:41:41.490Z,7.63
2022-11-16T06:44:46.691Z,7.65
2022-11-16T06:47:52.105Z,7.70
2022-11-16T06:50:54.920Z,7.66
2022-11-16T06:53:58.514Z,7.77
2022-11-16T06:57:02.937Z,7.75
2022-11-16T07:00:06.486Z,7.85
2022-11-16T07:03:11.068Z,7.74
2022-11-16T07:06:14.700Z,8.05
2022-11-16T07:09:20.586Z,7.94
2022-11-16T07:12:23.545Z,7.78
2022-11-16T07:15:26.168Z,7.99
2022-11-16T07:18:29.205Z,7.55
2022-11-16T07:21:32.099Z,7.46
2022-11-16T07:24:37.632Z,7.42
2022-11-16T07:27:40.739Z,7.50
2022-11-16T07:30:44.706Z,7.47
2022-11-16T07:33:52.270Z,7.41
2022-11-16T07:37:13.485Z,7.45
2022-11-16T07:40:16.522Z,7.64
2022-11-16T07:43:20.425Z,7.76
2022-11-16T07:46:47.637Z,7.78
2022-11-16T07:49:52.473Z,7.68
2022-11-16T07:52:57.190Z,7.76
2022-11-16T07:56:00.255Z,7.94
2022-11-16T07:59:06.125Z,8.00
2022-11-16T08:02:12.527Z,8.10
2022-11-16T08:05:16.851Z,8.23
2022-11-16T08:08:19.511Z,8.23
2022-11-16T08:11:22.083Z,8.35
2022-11-16T08:14:26.322Z,8.40
2022-11-16T08:17:31.750Z,8.28
2022-11-16T08:20:36.608Z,8.49
2022-11-16T08:23:40.444Z,8.40
2022-11-16T08:26:43.512Z,8.44
2022-11-16T08:29:48.913Z,8.50
2022-11-16T08:32:51.585Z,8.50
2022-11-16T08:35:55.066Z,8.54
2022-11-16T08:38:58.110Z,8.53
2022-11-16T08:42:00.976Z,8.48
2022-11-16T08:45:03.907Z,8.63
2022-11-16T08:48:06.667Z,8.65
2022-11-16T08:51:19.247Z,8.66
2022-11-16T08:54:29.294Z,8.47
2022-11-16T08:57:32.254Z,8.61
2022-11-16T09:00:39.353Z,8.58
2022-11-16T09:03:42.492Z,8.45
2022-11-16T09:06:45.667Z,8.43
2022-11-16T09:09:49.102Z,8.57
2022-11-16T09:12:52.532Z,8.77
2022-11-16T09:15:59.390Z,8.82
2022-11-16T09:19:03.161Z,8.80
2022-11-16T09:22:06.362Z,8.87
2022-11-16T09:25:14.780Z,8.93
2022-11-16T09:28:22.380Z,9.01
2022-11-16T09:31:27.709Z,9.09
2022-11-16T09:34:30.234Z,9.08
2022-11-16T09:37:34.226Z,9.01
2022-11-16T09:40:39.747Z,9.10
2022-11-16T09:43:53.678Z,9.04
2022-11-16T09:46:59.102Z,9.06
2022-11-16T09:50:05.554Z,8.99
2022-11-16T09:53:40.232Z,9.09
2022-11-16T09:56:44.000Z,9.10
2022-11-16T09:59:51.781Z,9.16
2022-11-16T10:03:21.298Z,9.06
2022-11-16T10:06:41.891Z,9.10
2022-11-16T10:09:46.685Z,9.17
2022-11-16T10:12:54.601Z,9.09
2022-11-16T10:16:02.437Z,9.21
2022-11-16T10:19:22.745Z,9.26
2022-11-16T10:22:25.392Z,9.27
2022-11-16T10:25:46.432Z,9.32
2022-11-16T10:29:01.038Z,9.35
2022-11-16T10:32:18.736Z,9.43
2022-11-16T10:35:39.710Z,9.39
2022-11-16T10:38:44.651Z,9.22
2022-11-16T10:41:54.157Z,9.38
2022-11-16T10:45:06.885Z,9.58
2022-11-16T10:48:50.605Z,9.65
2022-11-16T10:51:53.553Z,9.62
2022-11-16T10:54:56.171Z,9.43
2022-11-16T10:58:02.077Z,9.35
2022-11-16T11:01:10.970Z,9.13
2022-11-16T11:04:22.204Z,9.21
2022-11-16T11:07:40.329Z,9.38
2022-11-16T11:10:43.076Z,9.29
2022-11-16T11:13:45.545Z,9.39
2022-11-16T11:16:55.838Z,9.14
2022-11-16T11:20:18.602Z,9.29
2022-11-16T11:23:24.958Z,9.31
2022-11-16T11:26:40.621Z,9.31
2022-11-16T11:29:43.522Z,9.05
2022-11-16T11:32:46.649Z,9.20
2022-11-16T11:35:59.154Z,9.39
2022-11-16T11:39:08.723Z,9.48
2022-11-16T11:42:14.262Z,9.52
2022-11-16T11:45:19.615Z,9.62
2022-11-16T11:48:32.332Z,9.72
2022-11-16T11:51:40.594Z,9.85
2022-11-16T11:54:49.359Z,10.00
2022-11-16T11:57:53.966Z,10.08
2022-11-16T12:01:14.866Z,10.12
2022-11-16T12:04:46.592Z,10.16
2022-11-16T12:07:56.512Z,10.04
2022-11-16T12:11:23.830Z,10.10
2022-11-16T12:14:56.801Z,10.00
2022-11-16T12:18:05.601Z,10.08
2022-11-16T12:21:19.156Z,10.07
2022-11-16T12:24:48.110Z,9.99
2022-11-16T12:28:08.750Z,9.98
2022-11-16T12:31:36.610Z,9.88
2022-11-16T12:35:04.952Z,9.88
2022-11-16T12:38:26.434Z,9.87
2022-11-16T12:41:32.076Z,9.78
2022-11-16T12:44:46.763Z,9.77
2022-11-16T12:48:27.192Z,9.77
2022-11-16T12:51:51.785Z,9.72
2022-11-16T12:55:26.049Z,9.65
2022-11-16T12:59:07.505Z,9.55
2022-11-16T13:02:29.136Z,9.52
2022-11-16T13:05:52.252Z,9.55
2022-11-16T13:09:10.736Z,9.53
2022-11-16T13:12:17.346Z,9.46
2022-11-16T13:15:25.051Z,9.38
2022-11-16T13:18:29.743Z,9.47
2022-11-16T13:22:11.393Z,9.51
2022-11-16T13:25:28.802Z,9.31
2022-11-16T13:29:12.677Z,9.15
2022-11-16T13:32:30.775Z,9.21
2022-11-16T13:35:37.453Z,9.14
2022-11-16T13:38:54.911Z,9.07
2022-11-16T13:42:12.310Z,9.05
2022-11-16T13:45:20.776Z,8.95
2022-11-16T13:48:26.399Z,8.96
2022-11-16T13:51:29.158Z,8.90
2022-11-16T13:54:46.231Z,8.87
2022-11-16T13:57:52.588Z,8.82
2022-11-16T14:01:15.770Z,8.84
2022-11-16T14:05:06.815Z,8.97
2022-11-16T14:08:24.992Z,8.88
2022-11-16T14:11:38.969Z,8.94
2022-11-16T14:15:03.894Z,8.99
2022-11-16T14:18:09.453Z,8.99
2022-11-16T14:21:20.628Z,8.98
2022-11-16T14:24:47.129Z,8.94
2022-11-16T14:28:32.327Z,8.87
2022-11-16T14:31:54.851Z,8.96
2022-11-16T14:34:59.854Z,8.88
2022-11-16T14:38:15.890Z,8.84
2022-11-16T14:41:21.498Z,8.94
2022-11-16T14:44:27.745Z,9.03
2022-11-16T14:47:38.749Z,8.96
2022-11-16T14:50:45.457Z,8.93
2022-11-16T14:53:52.832Z,8.78
2022-11-16T14:56:56.569Z,8.70
2022-11-16T15:00:09.411Z,8.66
2022-11-16T15:03:12.323Z,8.65
2022-11-16T15:06:15.975Z,8.66
2022-11-16T15:09:29.834Z,8.65
2022-11-16T15:12:41.687Z,8.72
2022-11-16T15:15:45.749Z,8.62
2022-11-16T15:19:02.119Z,8.56
2022-11-16T15:22:05.271Z,8.52
2022-11-16T15:25:43.144Z,8.48
2022-11-16T15:28:49.900Z,8.46
2022-11-16T15:31:52.752Z,8.40
2022-11-16T15:34:55.232Z,8.45
2022-11-16T15:38:18.507Z,8.41
2022-11-16T15:41:23.048Z,8.42
2022-11-16T15:44:26.536Z,8.43
2022-11-16T15:47:29.536Z,8.34
2022-11-16T15:50:32.070Z,8.42
2022-11-16T15:53:45.906Z,8.42
2022-11-16T15:56:50.312Z,8.46
2022-11-16T15:59:55.701Z,8.36
2022-11-16T16:03:05.180Z,8.44
2022-11-16T16:06:18.015Z,8.55
2022-11-16T16:09:22.727Z,8.40
2022-11-16T16:12:28.361Z,8.20
2022-11-16T16:15:34.763Z,8.22
2022-11-16T16:18:43.208Z,8.23
2022-11-16T16:21:47.072Z,8.29
2022-11-16T16:24:49.553Z,8.21
2022-11-16T16:27:52.020Z,8.21
2022-11-16T16:30:54.377Z,8.19
2022-11-16T16:33:56.913Z,8.28
2022-11-16T16:36:59.600Z,8.29
2022-11-16T16:40:02.831Z,8.28
2022-11-16T16:43:05.461Z,8.17
2022-11-16T16:46:11.287Z,8.32
2022-11-16T16:49:13.845Z,8.24
2022-11-16T16:52:16.521Z,8.13
2022-11-16T16:55:18.992Z,8.17
2022-11-16T16:58:21.695Z,8.09
2022-11-16T17:01:24.454Z,8.12
2022-11-16T17:04:27.051Z,8.12
2022-11-16T17:07:30.259Z,8.10
2022-11-16T17:10:33.276Z,8.11
2022-11-16T17:13:36.334Z,8.13
2022-11-16T17:16:39.095Z,8.11
2022-11-16T17:19:41.757Z,8.14
2022-11-16T17:22:44.495Z,8.18
2022-11-16T17:25:47.425Z,8.17
2022-11-16T17:28:54.717Z,8.19
2022-11-16T17:31:57.317Z,8.14
2022-11-16T17:35:00.134Z,8.14
2022-11-16T17:38:02.650Z,8.13
2022-11-16T17:41:07.292Z,8.16
2022-11-16T17:44:09.866Z,8.26
2022-11-16T17:47:12.597Z,8.22
2022-11-16T17:50:15.342Z,8.23
2022-11-16T17:53:17.941Z,8.24
2022-11-16T17:56:22.521Z,8.22
2022-11-16T17:59:29.529Z,8.31
2022-11-16T18:02:32.554Z,8.23
2022-11-16T18:05:35.127Z,8.30
2022-11-16T18:08:38.054Z,8.31
2022-11-16T18:11:40.510Z,8.33
2022-11-16T18:14:59.867Z,8.36
2022-11-16T18:18:05.739Z,8.33
2022-11-16T18:21:09.955Z,8.36
2022-11-16T18:24:12.970Z,8.35
2022-11-16T18:27:16.010Z,8.26
2022-11-16T18:30:18.553Z,8.29
2022-11-16T18:33:21.117Z,8.33
2022-11-16T18:36:24.370Z,8.34
2022-11-16T18:39:27.415Z,8.35
2022-11-16T18:42:30.123Z,8.38
2022-11-16T18:45:32.910Z,8.38
2022-11-16T18:48:35.396Z,8.32
2022-11-16T18:51:38.068Z,8.39
2022-11-16T18:54:41.136Z,8.33
2022-11-16T18:57:43.732Z,8.46
2022-11-16T19:00:47.310Z,8.33
2022-11-16T19:03:51.323Z,8.43
2022-11-16T19:06:54.321Z,8.44
2022-11-16T19:09:57.257Z,8.38
2022-11-16T19:13:00.080Z,8.42
2022-11-16T19:16:02.853Z,8.44
2022-11-16T19:19:05.554Z,8.46
2022-11-16T19:22:08.122Z,8.50
2022-11-16T19:25:12.175Z,8.38
2022-11-16T19:28:14.852Z,8.43
2022-11-16T19:31:23.953Z,8.37
2022-11-16T19:34:31.941Z,8.39
2022-11-16T19:37:35.992Z,8.38
2022-11-16T19:40:39.537Z,8.31
2022-11-16T19:43:42.567Z,8.33
2022-11-16T19:46:45.201Z,8.28
2022-11-16T19:49:50.078Z,8.27
2022-11-16T19:52:52.601Z,8.35
2022-11-16T19:55:55.426Z,8.35
2022-11-16T19:58:58.614Z,8.35
2022-11-16T20:02:01.883Z,8.41
2022-11-16T20:05:04.777Z,8.38
2022-11-16T20:08:07.215Z,8.31
2022-11-16T20:11:15.339Z,8.32
2022-11-16T20:14:18.108Z,8.38
2022-11-16T20:17:21.095Z,8.32
2022-11-16T20:20:23.873Z,8.31
2022-11-16T20:23:26.622Z,8.41
2022-11-16T20:26:31.698Z,8.38
2022-11-16T20:29:34.156Z,8.41
2022-11-16T20:32:36.821Z,8.43
2022-11-16T20:35:39.406Z,8.35
2022-11-16T20:38:42.084Z,8.31
2022-11-16T20:41:45.226Z,8.34
2022-11-16T20:44:47.995Z,8.36
2022-11-16T20:47:51.682Z,8.39
2022-11-16T20:50:54.289Z,8.21
2022-11-16T20:53:57.185Z,8.15
2022-11-16T20:56:59.685Z,8.27
2022-11-16T21:00:05.150Z,8.27
2022-11-16T21:03:07.646Z,8.31
2022-11-16T21:06:11.737Z,8.21
2022-11-16T21:09:22.582Z,8.22
2022-11-16T21:12:44.361Z,8.20
2022-11-16T21:15:56.404Z,8.21
2022-11-16T21:18:59.115Z,8.22
2022-11-16T21:22:01.939Z,8.18
2022-11-16T21:25:04.713Z,8.15
2022-11-16T21:28:07.107Z,8.17
2022-11-16T21:31:14.979Z,8.12
2022-11-16T21:34:18.776Z,8.16
2022-11-16T21:37:21.482Z,8.11
2022-11-16T21:40:23.950Z,8.05
2022-11-16T21:43:27.024Z,8.07
2022-11-16T21:46:29.732Z,8.00
2022-11-16T21:49:32.273Z,8.07
2022-11-16T21:52:34.674Z,8.07
2022-11-16T21:55:37.101Z,8.00
2022-11-16T21:58:40.300Z,8.12
2022-11-16T22:02:01.002Z,8.14
2022-11-16T22:05:22.234Z,8.12
2022-11-16T22:08:24.710Z,8.07
2022-11-16T22:11:27.152Z,8.12
2022-11-16T22:14:29.516Z,8.10
2022-11-16T22:17:31.984Z,8.04
2022-11-16T22:20:34.427Z,8.07
2022-11-16T22:23:37.516Z,8.07
2022-11-16T22:26:41.102Z,8.08
2022-11-16T22:29:43.858Z,8.18
2022-11-16T22:32:46.328Z,8.19
2022-11-16T22:35:48.678Z,8.10
2022-11-16T22:38:51.242Z,8.13
2022-11-16T22:41:54.058Z,8.13
2022-11-16T22:44:56.591Z,8.15
2022-11-16T22:47:59.032Z,8.22
2022-11-16T22:51:22.085Z,8.29
2022-11-16T22:54:28.433Z,8.31
2022-11-16T22:57:31.526Z,8.31
2022-11-16T23:00:40.718Z,8.34
2022-11-16T23:03:44.524Z,8.36
2022-11-16T23:06:46.905Z,8.41
2022-11-16T23:09:49.390Z,8.50
2022-11-16T23:13:10.297Z,8.53
2022-11-16T23:16:12.672Z,8.52
2022-11-16T23:19:35.967Z,8.62
2022-11-16T23:22:56.982Z,8.54
2022-11-16T23:26:17.791Z,8.55
2022-11-16T23:29:20.642Z,8.53
2022-11-16T23:32:23.077Z,8.53
2022-11-16T23:35:25.520Z,8.59
2022-11-16T23:38:28.007Z,8.62
2022-11-16T23:41:49.192Z,8.55
2022-11-16T23:44:51.552Z,8.50
2022-11-16T23:47:53.996Z,8.55
2022-11-16T23:50:56.549Z,8.55
2022-11-16T23:53:59.746Z,8.57
2022-11-16T23:57:02.421Z,8.58
